Latest Weather Observations for Sydney Airport

IDN60801

Issued at 12:05 am EDT Friday 19 December 2014 (issued every 30 minutes, with the page automatically refreshed every 10 minutes)

About weather observations | Map of weather stations | Latest weather observations for NSW | Other Formats
Station Details ID: 066037 Name: SYDNEY AIRPORT AMO Lat: -33.95 Lon: 151.17 Height: 6.0 m
Data from the previous 72 hours. | See also: Recent months at Sydney Airport
Date/Time
EDT
Temp
°C
App
Temp
°C
Dew
Point
Rel
Hum
%
Delta-T
°C
Wind Press
QNH
hPa
Press
MSL
hPa
Rain
since 9 am
mm
Dir
 
Spd
km/h
Gust
km/h
Spd
kts
Gust
kts
18/11:30pm 22.4 24.8 20.1 87 1.5 WSW 7 9 4 5 1006.4 1006.4 0.0
18/11:00pm 22.2 24.7 20.2 88 1.3 NNE 7 7 4 4 1006.3 1006.3 0.0
18/10:30pm 22.5 25.0 20.3 87 1.4 ENE 7 7 4 4 1006.4 1006.4 0.0
18/10:00pm 22.5 24.7 20.3 87 1.4 NNE 9 11 5 6 1006.3 1006.3 0.0
18/09:30pm 23.3 24.0 20.4 84 1.9 NNE 17 20 9 11 1006.0 1006.0 0.0
18/09:00pm 23.2 24.3 20.4 84 1.8 NE 15 20 8 11 1005.8 1005.8 0.0
18/08:30pm 23.4 24.0 20.3 83 2.0 NE 17 22 9 12 1005.4 1005.4 0.0
18/08:00pm 23.8 23.5 20.3 81 2.3 NE 22 30 12 16 1005.5 1005.5 0.0
18/07:30pm 24.4 23.5 19.9 76 2.9 NE 24 32 13 17 1005.1 1005.1 0.0
18/07:00pm 24.9 23.1 19.6 72 3.4 NE 28 35 15 19 1004.9 1004.9 0.0
18/06:30pm 25.4 24.2 19.2 68 4.0 NE 24 32 13 17 1004.5 1004.5 0.0
18/05:30pm 25.5 23.3 18.8 66 4.3 ENE 28 33 15 18 1003.9 1003.9 0.0
18/05:00pm 27.1 25.0 18.1 58 5.7 NE 26 32 14 17 1004.0 1004.0 0.0
18/04:30pm 26.1 23.9 18.6 63 4.8 NE 28 41 15 22 1004.2 1004.2 0.0
18/04:00pm 26.0 23.7 18.5 63 4.8 NE 28 35 15 19 1004.8 1004.8 0.0
18/03:30pm 26.8 24.0 18.1 59 5.5 ENE 30 37 16 20 1005.2 1005.2 0.0
18/03:00pm 25.6 22.9 17.6 61 5.0 NE 28 35 15 19 1005.6 1005.6 0.0
18/02:30pm 27.0 24.6 17.3 55 6.1 ENE 26 33 14 18 1005.9 1005.9 0.0
18/02:00pm 26.2 23.7 17.1 57 5.7 ENE 26 33 14 18 1006.2 1006.2 0.0
18/01:30pm 24.3 22.1 17.0 63 4.5 NE 24 32 13 17 1006.7 1006.7 0.0
18/01:00pm 24.5 23.2 16.7 61 4.8 NE 19 30 10 16 1006.9 1006.9 0.0
18/12:30pm 23.2 23.1 16.9 67 3.9 ESE 13 19 7 10 1007.8 1007.8 0.0
18/12:00pm 22.3 22.0 16.4 69 3.6 SSE 13 17 7 9 1007.9 1007.9 0.0
18/11:30am 22.9 23.4 16.5 67 3.9 SSW 9 11 5 6 1008.3 1008.3 0.0
18/11:00am 21.0 21.9 16.5 75 2.7 WSW 7 13 4 7 1008.9 1008.9 0.0
18/10:30am 21.1 22.0 16.1 73 3.0 WSW 6 9 3 5 1009.1 1009.1 0.0
18/10:00am 20.3 20.9 15.8 75 2.7 E 7 9 4 5 1009.6 1009.6 0.0
18/09:30am 19.9 20.6 15.5 76 2.6 W 6 11 3 6 1010.1 1010.1 0.0
18/09:00am 19.5 19.5 15.3 76 2.5 WSW 9 13 5 7 1010.2 1010.2 0.0
18/08:30am 19.3 19.3 15.2 77 2.4 SW 9 13 5 7 1010.2 1010.2 0.0
18/08:00am 18.7 18.2 14.9 78 2.2 W 11 17 6 9 1010.7 1010.7 0.0
18/07:30am 19.1 18.1 14.6 75 2.6 WNW 13 17 7 9 1010.3 1010.3 0.0
18/07:00am 18.8 18.6 14.7 77 2.4 WSW 9 13 5 7 1010.1 1010.1 0.0
18/06:30am 19.2 18.9 14.4 74 2.8 W 9 19 5 10 1009.7 1009.7 0.0
18/05:30am 19.2 19.5 14.6 74 2.7 SW 6 9 3 5 1009.4 1009.4 0.0
18/05:00am 19.4 19.3 15.0 75 2.6 S 9 9 5 5 1009.0 1009.0 0.0
18/04:30am 19.3 19.0 14.5 74 2.8 SSE 9 9 5 5 1008.9 1008.9 0.0
18/04:00am 19.2 18.4 14.0 72 3.0 SE 11 13 6 7 1008.5 1008.5 0.0
18/03:30am 19.0 18.9 13.8 72 3.0 ESE 7 11 4 6 1008.9 1008.9 0.0
18/03:00am 19.1 17.7 13.5 70 3.2 NNE 13 17 7 9 1009.8 1009.8 0.0
18/02:30am 19.4 17.8 12.8 65 3.7 NE 13 17 7 9 1010.2 1010.2 0.0
18/02:00am 19.3 18.0 12.5 64 3.8 ENE 11 17 6 9 1009.9 1009.9 0.0
18/01:30am 19.3 17.9 12.3 64 3.9 NE 11 17 6 9 1010.4 1010.4 0.0
18/01:00am 19.5 18.1 12.3 63 4.0 NE 11 15 6 8 1010.8 1010.8 0.0
18/12:30am 19.5 19.0 12.6 64 3.9 ENE 7 9 4 5 1010.9 1010.9 0.0
 
Date/Time
EDT
Temp
°C
App
Temp
°C
Dew
Point
Rel
Hum
%
Delta-T
°C
Wind Press
QNH
hPa
Press
MSL
hPa
Rain
since 9 am
mm
Dir
 
Spd
km/h
Gust
km/h
Spd
kts
Gust
kts
17/11:30pm 19.2 17.5 12.6 65 3.7 NE 13 15 7 8 1011.4 1011.4 0.0
17/11:00pm 19.1 17.9 12.9 67 3.5 ESE 11 15 6 8 1011.4 1011.4 0.0
17/10:30pm 19.3 17.4 12.9 66 3.6 ENE 15 19 8 10 1011.5 1011.5 0.0
17/10:00pm 19.5 17.4 12.3 63 4.0 ESE 15 20 8 11 1011.5 1011.5 0.0
17/09:30pm 19.6 17.0 12.1 62 4.2 SE 17 19 9 10 1011.1 1011.1 0.0
17/09:00pm 19.7 17.3 11.5 59 4.5 SE 15 19 8 10 1011.0 1011.0 0.0
17/08:30pm 19.5 16.6 11.1 58 4.6 SE 17 20 9 11 1011.0 1011.0 0.0
17/08:00pm 19.7 16.4 10.9 57 4.8 ESE 19 24 10 13 1010.6 1010.6 0.0
17/07:30pm 19.6 16.2 11.4 59 4.5 SE 20 26 11 14 1010.0 1010.0 0.0
17/07:00pm 19.9 16.3 11.8 59 4.5 SE 22 28 12 15 1009.3 1009.3 0.0
17/06:30pm 20.0 15.5 11.3 57 4.8 SE 26 32 14 17 1008.7 1008.7 0.0
17/06:00pm 20.0 16.1 12.1 60 4.4 SE 24 30 13 16 1008.4 1008.4 0.0
17/05:30pm 20.3 16.4 12.1 59 4.6 SE 24 32 13 17 1008.1 1008.1 0.0
17/05:00pm 20.3 16.0 11.9 58 4.7 SE 26 32 14 17 1008.1 1008.1 0.0
17/04:30pm 20.8 16.5 12.1 57 4.9 SE 26 33 14 18 1007.9 1007.9 0.0
17/04:00pm 20.7 16.7 11.7 56 5.0 SE 24 32 13 17 1007.9 1007.9 0.0
17/03:30pm 21.2 16.8 11.7 54 5.3 SSE 26 33 14 18 1007.9 1007.9 0.0
17/03:00pm 21.5 16.8 10.8 50 5.9 SSE 26 35 14 19 1008.0 1008.0 0.0
17/02:30pm 22.3 18.2 11.4 50 6.1 SSE 24 33 13 18 1008.0 1008.0 0.0
17/02:00pm 21.6 16.8 11.6 53 5.6 SSE 28 37 15 20 1007.9 1007.9 0.0
17/01:30pm 21.4 16.5 11.3 52 5.6 SSE 28 35 15 19 1007.9 1007.9 0.0
17/01:00pm 21.7 16.6 10.6 49 6.1 SSE 28 33 15 18 1008.0 1008.0 0.0
17/12:30pm 20.7 16.1 11.1 54 5.3 SSE 26 35 14 19 1008.2 1008.2 0.0
17/12:00pm 20.8 15.4 12.1 57 4.9 S 32 37 17 20 1008.1 1008.1 0.0
17/11:30am 21.0 15.5 11.9 56 5.1 S 32 39 17 21 1007.9 1007.9 0.0
17/11:00am 21.1 15.3 11.4 54 5.4 SSE 33 41 18 22 1007.6 1007.6 0.0
17/10:30am 20.6 14.9 13.1 62 4.3 S 35 44 19 24 1007.3 1007.3 0.0
17/10:00am 20.6 14.2 12.0 57 4.8 S 37 50 20 27 1006.9 1006.9 0.0
17/09:30am 20.4 14.1 12.4 60 4.5 S 37 48 20 26 1006.5 1006.5 0.0
17/09:00am 20.0 14.6 13.9 68 3.5 S 35 46 19 25 1006.4 1006.4 0.0
17/08:30am 20.1 14.0 14.1 68 3.5 S 39 52 21 28 1005.8 1005.8 0.0
17/08:00am 20.1 13.6 15.0 72 3.0 S 43 54 23 29 1005.3 1005.3 0.0
17/07:30am 19.8 13.7 15.2 75 2.7 S 41 52 22 28 1004.4 1004.4 0.0
17/07:00am 19.9 12.3 15.7 77 2.5 S 50 59 27 32 1003.6 1003.6 0.0
17/06:30am 19.3 13.5 16.1 82 1.9 S 41 56 22 30 1002.6 1002.6 0.0
17/06:00am 19.3 12.9 16.0 81 2.0 S 44 59 24 32 1001.9 1001.9 0.0
17/05:30am 19.6 12.3 16.6 83 1.8 S 50 65 27 35 1001.1 1001.1 0.0
17/05:00am 19.7 12.5 16.7 83 1.8 SSW 50 67 27 36 1000.7 1000.7 0.0
17/04:55am 19.7 13.6 16.7 83 1.8 SSW 44 63 24 34 1000.4 1000.4 0.0
17/04:30am 20.0 14.3 17.2 84 1.7 S 43 57 23 31 999.9 999.9 0.0
17/04:19am 21.0 19.5 16.7 76 2.6 WNW 20 59 11 32 999.6 999.6 0.0
17/04:17am 21.1 21.1 17.2 78 2.4 NW 13 52 7 28 999.3 999.3 0.0
17/04:00am 21.3 22.0 17.1 77 2.6 NNW 9 13 5 7 998.1 998.1 0.0
17/03:30am 21.3 21.0 17.4 78 2.4 NW 15 20 8 11 998.1 998.1 0.0
17/03:00am 20.4 21.4 17.8 85 1.6 NW 9 11 5 6 997.8 997.8 0.0
17/02:30am 20.8 21.1 17.9 83 1.8 NNW 13 15 7 8 997.8 997.8 0.0
17/02:00am 21.0 21.9 18.3 84 1.7 NW 11 13 6 7 997.8 997.8 0.0
17/01:30am 21.3 22.5 18.3 83 1.9 NW 9 11 5 6 998.0 998.0 0.0
17/01:00am 21.2 22.1 18.3 83 1.8 NW 11 13 6 7 998.3 998.3 0.0
17/12:30am 21.4 22.7 18.4 83 1.9 WNW 9 13 5 7 998.3 998.3 0.0
17/12:00am 21.5 23.2 18.5 83 1.9 W 7 9 4 5 998.2 998.2 0.0
 
Date/Time
EDT
Temp
°C
App
Temp
°C
Dew
Point
Rel
Hum
%
Delta-T
°C
Wind Press
QNH
hPa
Press
MSL
hPa
Rain
since 9 am
mm
Dir
 
Spd
km/h
Gust
km/h
Spd
kts
Gust
kts
16/11:30pm 21.6 24.4 18.8 84 1.8 NW 2 9 1 5 998.4 998.4 0.0
16/11:00pm 22.0 23.0 18.7 81 2.1 NE 11 15 6 8 998.4 998.4 0.0
16/10:30pm 22.4 24.3 18.9 80 2.2 NE 7 11 4 6 998.5 998.5 0.0
16/10:00pm 21.4 24.0 19.2 87 1.4 ENE 4 6 2 3 999.0 999.0 0.0
16/09:30pm 22.2 23.2 18.7 80 2.2 NE 11 13 6 7 998.7 998.7 0.0
16/09:00pm 23.0 24.0 18.7 77 2.7 NE 11 13 6 7 998.4 998.4 0.0
16/08:30pm 23.5 23.3 18.6 74 3.1 NNE 17 20 9 11 998.3 998.3 0.0
16/08:00pm 23.6 22.4 18.4 72 3.3 NNE 22 30 12 16 998.0 998.0 0.0
16/07:30pm 23.7 21.3 18.3 71 3.4 NNE 28 37 15 20 997.7 997.7 0.0
16/07:00pm 24.0 19.8 18.1 69 3.7 NNE 37 46 20 25 997.3 997.3 0.0
16/06:30pm 24.5 19.8 17.8 66 4.2 NNE 39 54 21 29 997.4 997.4 0.0
16/06:00pm 24.1 16.1 17.6 67 4.1 NNE 56 72 30 39 996.8 996.8 0.0
16/05:44pm 24.4 16.3 17.7 66 4.2 NNE 57 72 31 39 996.5 996.5 0.0
16/05:30pm 25.4 17.4 17.6 62 4.9 NE 56 70 30 38 996.3 996.3 0.0
16/05:00pm 24.7 17.0 17.3 63 4.6 NE 54 76 29 41 996.6 996.6 0.0
16/04:30pm 25.5 17.3 17.6 61 4.9 NE 57 76 31 41 997.2 997.2 0.0
16/04:03pm 24.1 17.2 17.4 66 4.2 NE 50 69 27 37 998.2 998.2 0.0
16/04:00pm 24.5 17.1 17.3 64 4.5 NE 52 69 28 37 998.2 998.2 0.0
16/03:42pm 24.4 16.5 17.0 63 4.6 NNE 54 72 29 39 998.4 998.4 0.0
16/03:30pm 24.5 16.2 16.9 62 4.7 NE 56 70 30 38 998.4 998.4 0.0
16/03:10pm 24.5 16.5 16.7 61 4.8 NE 54 72 29 39 999.0 999.0 0.0
16/03:00pm 25.4 17.1 16.9 59 5.3 NE 56 72 30 39 999.0 999.0 0.0
16/02:30pm 25.3 18.2 16.9 59 5.2 NNE 50 69 27 37 1000.4 1000.4 0.0
16/02:21pm 26.3 19.2 17.0 56 5.8 NNE 50 69 27 37 1000.6 1000.6 0.0
16/02:00pm 25.0 17.9 17.0 61 5.0 NNE 50 61 27 33 1000.9 1000.9 0.0
16/01:40pm 25.3 18.6 17.1 60 5.1 NE 48 69 26 37 1001.0 1001.0 0.0
16/01:30pm 23.9 17.2 17.0 65 4.3 NE 48 61 26 33 1001.0 1001.0 0.0
16/01:18pm 24.0 18.1 16.7 63 4.5 NE 43 61 23 33 1001.4 1001.4 0.0
16/01:00pm 24.0 17.5 16.5 63 4.6 NNE 46 63 25 34 1002.2 1002.2 0.0
16/12:38pm 24.4 19.0 15.9 59 5.2 NNE 39 57 21 31 1002.8 1002.8 0.0
16/12:30pm 24.1 18.5 15.5 58 5.2 NNE 39 54 21 29 1003.0 1003.0 0.0
16/12:00pm 23.7 18.1 15.4 59 5.0 NE 39 50 21 27 1003.9 1003.9 0.0
16/11:30am 23.5 19.3 15.7 61 4.7 NE 32 41 17 22 1004.4 1004.4 0.0
16/11:00am 22.5 19.0 15.5 64 4.2 NE 28 33 15 18 1005.0 1005.0 0.0
16/10:30am 22.4 19.9 15.2 63 4.3 NE 22 32 12 17 1005.6 1005.6 0.0
16/10:00am 22.6 18.2 15.6 64 4.2 NE 33 43 18 23 1005.6 1005.6 0.0
16/09:55am 21.9 17.5 15.6 67 3.8 ENE 33 39 18 21 1005.6 1005.6 0.0
16/09:30am 21.3 19.7 16.0 72 3.2 ENE 19 22 10 12 1007.6 1007.6 0.0
16/09:00am 23.6 20.9 14.5 56 5.4 NNE 22 33 12 18 1007.8 1007.8 0.0
16/08:30am 23.6 19.5 13.9 54 5.7 NNE 28 39 15 21 1006.6 1006.6 0.0
16/08:00am 23.5 18.7 14.0 55 5.6 NNE 32 39 17 21 1006.7 1006.7 0.0
16/07:30am 22.8 18.6 14.7 60 4.8 NNE 30 37 16 20 1006.1 1006.1 0.0
16/07:00am 21.7 19.4 14.6 64 4.2 NNE 20 30 11 16 1006.6 1006.6 0.0
16/06:30am 21.9 18.9 14.8 64 4.2 NNE 24 30 13 16 1006.2 1006.2 0.0
16/06:00am 21.4 19.2 15.0 67 3.8 NNE 20 26 11 14 1006.5 1006.5 0.0
16/05:30am 20.9 18.0 15.0 69 3.5 NNE 24 35 13 19 1006.3 1006.3 0.0
16/05:00am 20.9 18.3 15.0 69 3.5 NNE 22 28 12 15 1006.8 1006.8 0.0
16/04:30am 20.7 18.0 15.7 73 3.0 NNE 24 30 13 16 1006.9 1006.9 0.0
16/04:00am 20.7 18.7 15.5 72 3.1 NNE 20 26 11 14 1007.2 1007.2 0.0
16/03:30am 20.7 18.4 15.7 73 3.0 NNE 22 28 12 15 1007.2 1007.2 0.0
16/03:00am 20.7 18.8 15.7 73 3.0 NNE 20 28 11 15 1007.7 1007.7 0.0
16/02:30am 21.0 19.2 15.6 71 3.2 NNE 19 24 10 13 1008.0 1008.0 0.0
16/02:00am 21.1 18.3 15.4 70 3.4 NNE 24 32 13 17 1008.4 1008.4 0.0
16/01:30am 21.3 19.8 15.2 68 3.6 NNE 17 20 9 11 1009.1 1009.1 0.0
16/01:00am 21.3 19.1 15.0 67 3.7 NNE 20 28 11 15 1009.6 1009.6 0.0
16/12:30am 21.3 19.1 14.5 65 4.0 NNE 19 26 10 14 1009.8 1009.8 0.0

Other Formats:

Comma delimited format used in spreadsheet applications
http://www.bom.gov.au/fwo/IDN60801/IDN60801.94767.axf

JavaScript Object Notation format (JSON) in row-major order
http://www.bom.gov.au/fwo/IDN60801/IDN60801.94767.json